Time;durP1;ratioP1;P1;durP2;ratioP2;P2;SDS_P1;SDS_P2;PMS_P1;PMS_P2;Temp;Humidity;BMP_temperature;BMP_pressure;BME280_temperature;BME280_humidity;BME280_pressure;Samples;Min_cycle;Max_cycle;Signal;HPM_P1;HPM_P2
2021/07/30 00:01:30;;;;;;;7.95;6.28;;;;;;;25.08;55.60;99675.06;4953902;29;20391;-81
2021/07/30 00:03:57;;;;;;;7.93;6.72;;;;;;;25.07;56.32;99677.94;4954060;29;20055;-81
2021/07/30 00:06:26;;;;;;;8.77;6.90;;;;;;;24.98;56.98;99677.19;4952667;28;20459;-81
2021/07/30 00:08:53;;;;;;;8.15;7.00;;;;;;;24.97;57.30;99686.16;4954268;29;20097;-80
2021/07/30 00:11:19;;;;;;;7.95;7.15;;;;;;;24.94;57.75;99683.88;4953654;29;20912;-81
2021/07/30 00:13:46;;;;;;;8.70;7.25;;;;;;;24.83;58.63;99687.00;4953846;28;20082;-81
2021/07/30 00:16:13;;;;;;;7.63;6.78;;;;;;;24.76;59.45;99688.72;4953925;29;20494;-81
2021/07/30 00:18:40;;;;;;;12.10;8.35;;;;;;;24.90;59.02;99679.91;4936349;29;20078;-81
2021/07/30 00:21:06;;;;;;;10.50;7.10;;;;;;;24.89;59.40;99693.44;4953234;29;20046;-81
2021/07/30 00:23:33;;;;;;;10.52;6.75;;;;;;;24.85;59.20;99687.63;4933835;29;20458;-81
2021/07/30 00:26:01;;;;;;;8.90;7.70;;;;;;;24.76;59.71;99689.53;4954253;29;20431;-82
2021/07/30 00:28:28;;;;;;;9.45;8.52;;;;;;;24.75;60.22;99690.56;4949438;29;20052;-82
2021/07/30 00:30:55;;;;;;;7.75;6.95;;;;;;;24.68;60.30;99683.47;4953857;29;20050;-81
2021/07/30 00:33:22;;;;;;;9.15;7.53;;;;;;;24.77;59.97;99693.06;4953270;29;20396;-81
2021/07/30 00:35:48;;;;;;;10.85;7.25;;;;;;;24.79;59.98;99685.69;4948636;29;20114;-82
2021/07/30 00:38:15;;;;;;;8.82;7.95;;;;;;;24.96;59.68;99686.34;4953702;29;20051;-81
2021/07/30 00:40:42;;;;;;;11.20;7.60;;;;;;;24.94;59.89;99683.06;4953461;29;20039;-81
2021/07/30 00:43:09;;;;;;;8.70;7.70;;;;;;;24.83;60.46;99687.81;4953349;29;20035;-80
2021/07/30 00:45:36;;;;;;;9.70;7.82;;;;;;;24.64;61.30;99682.19;4949646;28;20118;-81
2021/07/30 00:48:04;;;;;;;14.20;8.80;;;;;;;24.74;61.12;99688.91;4952816;29;20094;-81
2021/07/30 00:50:30;;;;;;;10.32;8.73;;;;;;;24.69;61.31;99685.13;4953729;29;20040;-81
2021/07/30 00:52:57;;;;;;;10.55;8.43;;;;;;;24.69;61.60;99685.13;4954493;29;20167;-81
2021/07/30 00:55:24;;;;;;;14.20;8.20;;;;;;;24.74;60.95;99685.41;4953924;29;20047;-82
2021/07/30 00:57:52;;;;;;;10.77;8.35;;;;;;;24.75;61.04;99687.88;4953973;29;20557;-81
2021/07/30 01:00:20;;;;;;;11.48;8.57;;;;;;;24.78;61.31;99689.38;4953985;29;20146;-82
2021/07/30 01:02:47;;;;;;;12.52;8.20;;;;;;;24.70;61.55;99684.13;4953851;29;20450;-83
2021/07/30 01:05:14;;;;;;;9.88;8.50;;;;;;;24.65;61.72;99678.50;4953820;29;20457;-81
2021/07/30 01:07:41;;;;;;;11.40;7.25;;;;;;;24.71;61.96;99680.44;4953812;29;20035;-81
2021/07/30 01:10:08;;;;;;;13.40;8.02;;;;;;;24.66;62.45;99680.16;4954002;29;20046;-81
2021/07/30 01:12:35;;;;;;;25.25;8.60;;;;;;;24.69;62.12;99680.63;4953502;28;20039;-81
2021/07/30 01:15:03;;;;;;;9.93;8.95;;;;;;;24.64;62.68;99671.53;4953978;29;20126;-81
2021/07/30 01:17:30;;;;;;;13.18;8.77;;;;;;;24.68;62.49;99672.81;4953499;28;20086;-81
2021/07/30 01:19:57;;;;;;;10.52;9.15;;;;;;;24.48;63.53;99668.00;4957910;29;20054;-81
2021/07/30 01:22:30;;;;;;;17.05;8.80;;;;;;;24.59;63.35;99661.41;4957757;29;20039;-81
2021/07/30 01:24:57;;;;;;;15.00;10.18;;;;;;;24.56;63.75;99665.28;4958590;29;20047;-83
2021/07/30 01:27:24;;;;;;;13.10;8.90;;;;;;;24.59;63.63;99665.91;4956503;29;20043;-83
2021/07/30 01:29:51;;;;;;;17.52;9.75;;;;;;;24.67;63.59;99665.84;4957375;29;20065;-83
2021/07/30 01:32:19;;;;;;;12.95;9.07;;;;;;;24.59;63.69;99665.91;4940558;29;20047;-81
2021/07/30 01:34:47;;;;;;;11.32;9.05;;;;;;;24.47;64.11;99671.69;4957941;29;20039;-81
2021/07/30 01:37:14;;;;;;;12.32;9.20;;;;;;;24.58;63.67;99672.25;4957774;29;20502;-81
2021/07/30 01:39:40;;;;;;;13.02;9.57;;;;;;;24.56;63.49;99662.59;4957633;29;20491;-82
2021/07/30 01:42:07;;;;;;;9.82;8.35;;;;;;;24.60;63.67;99672.88;4957943;29;20098;-83
2021/07/30 01:44:34;;;;;;;10.32;9.27;;;;;;;24.51;63.74;99662.31;4957734;29;20088;-82
2021/07/30 01:47:01;;;;;;;13.75;9.88;;;;;;;24.45;64.08;99665.72;4957947;29;20043;-82
2021/07/30 01:49:27;;;;;;;14.75;9.82;;;;;;;24.52;63.81;99655.97;4957690;29;20043;-82
2021/07/30 01:51:54;;;;;;;10.13;8.93;;;;;;;24.60;63.53;99654.22;4957803;29;20418;-82
2021/07/30 01:54:21;;;;;;;10.20;9.13;;;;;;;24.58;63.88;99654.44;4957415;29;20494;-82
2021/07/30 01:56:48;;;;;;;11.00;8.35;;;;;;;24.48;64.25;99656.50;4957614;29;20035;-81
2021/07/30 01:59:14;;;;;;;11.85;10.65;;;;;;;24.23;65.38;99653.19;4957170;29;20051;-82
2021/07/30 02:01:41;;;;;;;8.90;7.88;;;;;;;24.20;65.45;99658.91;4957396;29;20043;-80
2021/07/30 02:04:08;;;;;;;14.20;9.57;;;;;;;24.14;65.71;99649.78;4957742;29;20053;-82
2021/07/30 02:06:35;;;;;;;13.50;9.90;;;;;;;24.22;65.62;99654.22;4957096;29;20043;-82
2021/07/30 02:09:02;;;;;;;11.07;9.38;;;;;;;24.32;65.43;99654.78;4957369;29;20055;-82
2021/07/30 02:11:29;;;;;;;14.15;8.90;;;;;;;24.45;64.61;99655.06;4957145;29;20066;-83
2021/07/30 02:16:45;;;;;;;12.43;9.60;;;;;;;24.41;64.14;99647.59;4956955;29;20051;-83
2021/07/30 02:19:14;;;;;;;11.48;9.55;;;;;;;24.49;63.95;99648.34;4957534;29;20406;-83
2021/07/30 02:21:41;;;;;;;9.07;8.02;;;;;;;24.33;65.16;99656.44;4956985;29;20035;-83
2021/07/30 02:24:08;;;;;;;10.48;8.85;;;;;;;24.34;65.07;99655.44;4957413;29;20039;-83
2021/07/30 02:26:36;;;;;;;9.93;8.90;;;;;;;24.43;64.51;99648.25;4956649;29;20106;-83
2021/07/30 02:29:03;;;;;;;17.25;10.15;;;;;;;24.41;64.52;99651.09;4956958;28;20414;-83
2021/07/30 02:31:31;;;;;;;10.82;9.30;;;;;;;24.43;64.60;99649.06;4956181;29;20071;-82
2021/07/30 02:33:57;;;;;;;13.50;9.20;;;;;;;24.39;64.72;99644.28;4956826;29;20047;-83
2021/07/30 02:36:24;;;;;;;11.90;9.48;;;;;;;24.42;64.57;99646.59;4956696;29;20047;-84
2021/07/30 02:38:51;;;;;;;16.65;9.13;;;;;;;24.39;65.20;99653.09;4956622;29;20399;-83
2021/07/30 02:41:18;;;;;;;10.50;9.00;;;;;;;24.36;65.06;99645.47;4956937;29;20044;-81
2021/07/30 02:43:45;;;;;;;14.23;8.90;;;;;;;24.37;64.64;99648.97;4956842;29;20360;-83
2021/07/30 02:46:16;;;;;;;12.32;8.60;;;;;;;24.41;64.99;99639.59;4956876;29;20043;-81
2021/07/30 02:48:44;;;;;;;14.13;8.63;;;;;;;24.40;64.33;99636.13;4956551;29;20055;-83
2021/07/30 02:51:12;;;;;;;10.15;9.07;;;;;;;24.34;64.70;99643.94;4956814;29;20102;-81
2021/07/30 02:53:39;;;;;;;12.63;9.75;;;;;;;24.36;64.75;99649.97;4956449;29;20050;-83
2021/07/30 02:56:07;;;;;;;17.63;9.88;;;;;;;24.41;64.27;99640.44;4956329;29;20040;-81
2021/07/30 02:58:36;;;;;;;10.82;8.63;;;;;;;24.48;63.28;99641.34;4956422;29;20047;-80
2021/07/30 03:01:04;;;;;;;12.27;8.45;;;;;;;24.36;63.73;99641.97;4954221;29;20366;-82
2021/07/30 03:03:31;;;;;;;11.85;8.45;;;;;;;24.39;63.70;99639.78;4950539;28;20047;-83
2021/07/30 03:05:59;;;;;;;10.00;8.10;;;;;;;24.35;63.22;99638.50;4954248;29;20333;-83
2021/07/30 03:08:29;;;;;;;12.75;8.98;;;;;;;24.38;63.52;99634.63;4955791;29;20506;-81
2021/07/30 03:10:56;;;;;;;13.23;8.88;;;;;;;24.45;62.69;99631.06;4955345;29;20063;-81
2021/07/30 03:13:24;;;;;;;10.80;8.05;;;;;;;24.33;63.03;99637.78;4955645;29;20106;-82
2021/07/30 03:15:55;;;;;;;12.05;8.23;;;;;;;24.27;63.20;99639.34;4955377;29;20102;-84
2021/07/30 03:18:22;;;;;;;10.07;8.27;;;;;;;24.25;63.30;99629.91;4955286;29;20509;-82
2021/07/30 03:20:49;;;;;;;12.55;7.43;;;;;;;24.31;63.02;99632.66;4955141;29;20043;-81
2021/07/30 03:23:16;;;;;;;9.20;8.30;;;;;;;24.12;63.94;99640.31;4955687;29;20098;-81
2021/07/30 03:25:43;;;;;;;12.57;7.97;;;;;;;24.21;63.32;99631.25;4955412;29;20046;-81
2021/07/30 03:28:09;;;;;;;12.50;8.32;;;;;;;24.40;62.39;99637.97;4955265;29;20435;-81
2021/07/30 03:30:37;;;;;;;11.18;8.85;;;;;;;24.34;62.50;99639.44;4955412;29;20061;-81
2021/07/30 03:33:04;;;;;;;11.15;8.52;;;;;;;24.20;62.33;99632.28;4955142;29;20039;-81
2021/07/30 03:35:31;;;;;;;13.65;8.10;;;;;;;24.29;61.10;99641.84;4955405;29;20043;-82
2021/07/30 03:37:58;;;;;;;14.18;7.97;;;;;;;24.24;61.60;99639.72;4955170;29;20043;-82
2021/07/30 03:40:25;;;;;;;8.75;7.95;;;;;;;24.28;60.78;99645.50;4955292;28;20478;-81
2021/07/30 03:42:51;;;;;;;12.38;6.75;;;;;;;24.29;59.17;99642.69;4955066;29;20051;-81
2021/07/30 03:45:18;;;;;;;10.65;7.38;;;;;;;24.26;59.45;99636.88;4955888;29;20375;-81
2021/07/30 03:47:45;;;;;;;14.30;7.20;;;;;;;24.21;58.42;99649.91;4955672;29;20134;-82
2021/07/30 03:50:12;;;;;;;10.90;7.25;;;;;;;24.26;57.25;99644.88;4955261;29;20039;-83
2021/07/30 03:52:39;;;;;;;11.73;7.30;;;;;;;24.47;56.50;99637.03;4954995;29;20094;-83
2021/07/30 03:55:07;;;;;;;8.15;7.13;;;;;;;24.44;56.57;99637.41;4936259;29;20134;-81
2021/07/30 03:57:34;;;;;;;8.30;6.32;;;;;;;24.41;56.71;99640.44;4953810;29;20054;-82
2021/07/30 04:00:00;;;;;;;8.32;7.18;;;;;;;24.41;57.20;99644.94;4953314;28;20050;-83
2021/07/30 04:02:32;;;;;;;10.73;6.47;;;;;;;24.37;57.19;99635.66;4952243;28;20075;-80
2021/07/30 04:04:59;;;;;;;8.90;7.93;;;;;;;24.41;57.79;99635.09;4953973;28;20153;-81
2021/07/30 04:07:26;;;;;;;9.60;7.25;;;;;;;24.38;58.05;99643.44;4952844;28;20050;-78
2021/07/30 04:09:54;;;;;;;11.77;6.43;;;;;;;24.39;57.79;99639.78;4952347;28;20055;-79
2021/07/30 04:12:22;;;;;;;9.77;6.82;;;;;;;24.39;57.90;99642.44;4932533;28;20054;-81
2021/07/30 04:14:49;;;;;;;7.90;7.00;;;;;;;24.46;57.91;99638.06;4953798;28;20035;-81
2021/07/30 04:17:16;;;;;;;8.70;7.05;;;;;;;24.51;58.11;99641.00;4953389;28;20048;-81
2021/07/30 04:19:43;;;;;;;11.73;8.07;;;;;;;24.24;59.08;99645.06;4953248;28;20126;-82
2021/07/30 04:22:11;;;;;;;8.90;6.72;;;;;;;24.26;59.58;99643.03;4953628;28;20039;-81
2021/07/30 04:24:39;;;;;;;7.63;6.60;;;;;;;24.21;60.20;99656.03;4952983;28;20046;-81
2021/07/30 04:27:07;;;;;;;8.90;7.32;;;;;;;24.14;60.53;99652.44;4951391;28;20039;-79
2021/07/30 04:29:40;;;;;;;9.48;6.88;;;;;;;24.24;60.08;99655.69;4950095;29;20050;-83
2021/07/30 04:32:12;;;;;;;15.15;6.45;;;;;;;24.21;60.42;99658.72;4950230;29;20039;-81
2021/07/30 04:34:40;;;;;;;10.32;6.93;;;;;;;24.26;60.34;99660.84;4951606;29;20047;-79
2021/07/30 04:37:07;;;;;;;8.90;6.75;;;;;;;24.75;58.93;99658.56;4951721;29;20047;-79
2021/07/30 04:39:37;;;;;;;11.05;7.60;;;;;;;24.77;58.34;99658.41;4951455;29;20046;-78
2021/07/30 04:42:04;;;;;;;13.27;8.15;;;;;;;24.49;58.58;99658.16;4951141;29;20059;-80
2021/07/30 04:44:32;;;;;;;11.82;8.68;;;;;;;24.85;58.43;99658.31;4952752;29;20042;-81
2021/07/30 04:47:00;;;;;;;11.60;8.75;;;;;;;24.48;59.92;99668.00;4952351;29;20042;-82
2021/07/30 04:49:26;;;;;;;10.50;9.45;;;;;;;24.30;60.53;99667.47;4951830;29;20047;-83
2021/07/30 04:52:00;;;;;;;11.18;9.98;;;;;;;24.35;60.48;99667.78;4952278;29;20099;-78
2021/07/30 04:54:27;;;;;;;11.00;9.90;;;;;;;24.35;60.66;99665.13;4949385;29;20039;-82
2021/07/30 04:56:54;;;;;;;18.02;12.07;;;;;;;24.29;61.31;99663.16;4950518;29;20047;-81
2021/07/30 04:59:20;;;;;;;13.30;11.77;;;;;;;24.15;62.19;99672.75;4949141;29;20047;-81
2021/07/30 05:01:47;;;;;;;15.32;13.80;;;;;;;24.21;62.55;99666.69;4951500;29;20537;-83
2021/07/30 05:04:14;;;;;;;20.63;12.88;;;;;;;24.30;62.84;99668.31;4944706;29;20043;-82
2021/07/30 05:06:41;;;;;;;14.15;12.48;;;;;;;24.69;61.70;99664.63;4949644;29;20458;-83
2021/07/30 05:09:08;;;;;;;13.65;12.13;;;;;;;24.84;61.09;99662.00;4953510;29;20390;-81
2021/07/30 05:11:34;;;;;;;16.13;13.13;;;;;;;24.44;62.38;99665.88;4953897;29;20039;-79
2021/07/30 05:14:01;;;;;;;14.88;13.32;;;;;;;24.50;62.48;99666.00;4952750;29;20043;-81
2021/07/30 05:16:28;;;;;;;21.13;12.32;;;;;;;24.87;61.46;99660.78;4951639;29;20045;-83
2021/07/30 05:18:55;;;;;;;17.17;13.05;;;;;;;24.35;63.16;99661.63;4951640;29;20054;-83
2021/07/30 05:21:23;;;;;;;14.10;12.63;;;;;;;24.50;62.75;99657.16;4952294;29;20044;-81
2021/07/30 05:23:49;;;;;;;15.57;12.27;;;;;;;24.50;62.56;99663.34;4946529;29;20039;-83
2021/07/30 05:26:16;;;;;;;15.73;12.73;;;;;;;24.95;60.92;99653.53;4952185;29;20043;-83
2021/07/30 05:28:43;;;;;;;20.65;13.52;;;;;;;24.77;61.70;99659.25;4952664;29;20110;-82
2021/07/30 05:31:18;;;;;;;15.38;12.13;;;;;;;25.32;60.04;99660.63;4951724;28;20039;-82
2021/07/30 05:33:46;;;;;;;16.42;13.00;;;;;;;25.08;60.92;99655.56;4953697;29;20043;-80
2021/07/30 05:36:15;;;;;;;19.83;14.15;;;;;;;25.56;59.22;99667.47;4953505;29;20043;-86
2021/07/30 05:38:42;;;;;;;25.90;15.70;;;;;;;25.71;58.70;99658.59;4953166;29;20070;-80
2021/07/30 05:41:13;;;;;;;17.48;14.35;;;;;;;25.62;58.73;99660.59;4953274;29;20455;-82
2021/07/30 05:43:41;;;;;;;18.23;12.82;;;;;;;25.77;58.53;99657.88;4949578;29;20062;-84
2021/07/30 05:46:09;;;;;;;19.00;14.73;;;;;;;25.35;59.43;99664.75;4953577;29;20490;-83
2021/07/30 05:48:35;;;;;;;19.55;13.50;;;;;;;25.33;60.02;99661.44;4952639;29;20098;-79
2021/07/30 05:51:02;;;;;;;17.42;14.85;;;;;;;25.46;59.51;99663.44;4953486;29;20046;-80
2021/07/30 05:53:29;;;;;;;23.80;14.13;;;;;;;25.74;58.58;99664.44;4953187;29;20047;-81
2021/07/30 05:55:56;;;;;;;18.70;14.20;;;;;;;25.71;58.10;99664.78;4953318;29;20095;-83
2021/07/30 05:58:23;;;;;;;16.67;13.15;;;;;;;25.66;58.84;99674.34;4952851;29;20054;-82
2021/07/30 06:00:49;;;;;;;18.20;13.18;;;;;;;26.01;57.64;99678.88;4952686;28;20043;-83
2021/07/30 06:03:16;;;;;;;13.98;12.45;;;;;;;26.49;56.48;99684.50;4930613;28;20043;-80
2021/07/30 06:05:43;;;;;;;17.00;11.85;;;;;;;26.36;56.60;99679.81;4951835;28;20050;-80
2021/07/30 06:08:10;;;;;;;16.35;13.77;;;;;;;26.41;57.03;99679.25;4952760;28;20062;-84
2021/07/30 06:10:37;;;;;;;18.63;14.43;;;;;;;26.19;57.63;99681.09;4954515;28;20106;-80
2021/07/30 06:13:03;;;;;;;17.67;13.98;;;;;;;26.21;57.84;99688.94;4949720;29;20051;-79
2021/07/30 06:15:30;;;;;;;19.38;13.77;;;;;;;26.51;57.50;99697.66;4956668;29;20513;-79
2021/07/30 06:17:57;;;;;;;16.58;14.57;;;;;;;26.35;57.87;99698.72;4950233;29;20462;-80
2021/07/30 06:20:24;;;;;;;25.20;15.23;;;;;;;26.15;58.49;99703.03;4937965;28;20499;-79
2021/07/30 06:22:51;;;;;;;20.35;15.32;;;;;;;25.92;59.25;99696.03;4949454;29;20050;-82
2021/07/30 06:25:18;;;;;;;20.48;16.30;;;;;;;26.21;59.41;99707.66;4952901;29;20040;-83
2021/07/30 06:27:45;;;;;;;17.73;14.63;;;;;;;26.35;58.64;99714.75;4950382;29;20446;-78
2021/07/30 06:30:12;;;;;;;23.08;16.25;;;;;;;26.35;58.52;99712.06;4950893;29;20110;-81
2021/07/30 06:32:39;;;;;;;26.35;16.33;;;;;;;26.69;57.75;99710.56;4947883;29;20493;-80
2021/07/30 06:35:07;;;;;;;23.08;15.55;;;;;;;26.53;58.12;99704.47;4953087;29;20095;-81
2021/07/30 06:37:35;;;;;;;18.50;14.45;;;;;;;26.27;58.25;99691.69;4954006;29;20039;-79
2021/07/30 06:40:05;;;;;;;16.17;12.18;;;;;;;26.07;58.73;99696.81;4948907;29;20047;-81
2021/07/30 06:42:33;;;;;;;19.30;13.35;;;;;;;26.18;58.48;99700.00;4946383;29;20047;-78
2021/07/30 06:45:02;;;;;;;17.83;14.07;;;;;;;26.16;58.85;99702.06;4954470;29;20050;-79
2021/07/30 06:47:32;;;;;;;16.55;13.85;;;;;;;26.60;57.56;99710.69;4949670;29;20143;-81
2021/07/30 06:49:59;;;;;;;17.95;11.35;;;;;;;26.67;56.58;99699.22;4955303;29;20047;-82
2021/07/30 06:52:26;;;;;;;15.63;11.93;;;;;;;26.60;56.87;99707.19;4956163;29;20047;-80
2021/07/30 06:54:54;;;;;;;16.88;11.85;;;;;;;26.73;56.51;99703.78;4954914;29;20039;-80
2021/07/30 06:57:21;;;;;;;17.27;11.32;;;;;;;27.01;55.70;99691.25;4955272;29;20043;-81
2021/07/30 06:59:48;;;;;;;22.08;11.85;;;;;;;26.76;55.64;99692.72;4955022;29;20597;-79
2021/07/30 07:02:16;;;;;;;10.52;9.30;;;;;;;26.70;54.58;99693.50;4924092;29;20046;-77
2021/07/30 07:04:43;;;;;;;15.35;9.50;;;;;;;26.85;54.65;99697.72;4954749;29;20495;-80
2021/07/30 07:07:13;;;;;;;13.50;10.15;;;;;;;27.07;51.86;99698.50;4954241;29;20126;-82
2021/07/30 07:09:39;;;;;;;14.90;8.55;;;;;;;27.17;51.41;99698.16;4938600;29;20086;-81
2021/07/30 07:12:06;;;;;;;14.93;9.80;;;;;;;27.20;52.48;99702.28;4955682;28;20043;-80
2021/07/30 07:14:33;;;;;;;13.80;9.07;;;;;;;26.97;53.38;99710.56;4937878;29;20050;-77
2021/07/30 07:17:01;;;;;;;11.80;9.40;;;;;;;26.80;53.52;99718.03;4953618;28;20053;-77
2021/07/30 07:19:28;;;;;;;16.80;10.75;;;;;;;27.01;52.99;99701.94;4952347;28;20039;-80
2021/07/30 07:21:59;;;;;;;14.13;10.02;;;;;;;27.12;53.29;99703.28;4948805;29;20118;-79
2021/07/30 07:24:26;;;;;;;18.55;10.27;;;;;;;27.04;53.69;99706.06;4951900;29;20388;-76
2021/07/30 07:26:53;;;;;;;17.02;9.43;;;;;;;27.07;52.84;99703.03;4952558;29;20050;-80
2021/07/30 07:29:20;;;;;;;13.13;9.68;;;;;;;26.96;52.81;99701.69;4948020;29;20482;-80
2021/07/30 07:31:46;;;;;;;15.68;9.07;;;;;;;26.94;53.07;99700.22;4952057;29;20043;-79
2021/07/30 07:34:13;;;;;;;13.23;9.75;;;;;;;27.01;53.09;99701.94;4947691;29;20043;-80
2021/07/30 07:36:40;;;;;;;13.13;10.40;;;;;;;27.21;52.50;99688.69;4951449;29;20047;-80
2021/07/30 07:39:07;;;;;;;12.25;9.70;;;;;;;27.19;52.40;99695.28;4950703;29;20047;-80
2021/07/30 07:41:34;;;;;;;12.93;8.73;;;;;;;27.34;52.47;99687.94;4950482;29;20043;-77
2021/07/30 07:44:02;;;;;;;10.38;9.25;;;;;;;27.32;51.56;99685.44;4945668;29;20050;-80
2021/07/30 07:46:28;;;;;;;12.75;9.13;;;;;;;27.05;52.86;99688.97;4952364;29;20402;-81
2021/07/30 07:48:56;;;;;;;17.65;10.00;;;;;;;27.30;52.65;99682.16;4953421;29;20131;-80
2021/07/30 07:51:22;;;;;;;12.75;8.57;;;;;;;27.33;51.95;99687.13;4953861;29;20502;-79
2021/07/30 07:53:49;;;;;;;11.57;9.15;;;;;;;27.25;52.15;99695.31;4953870;29;20079;-80
2021/07/30 07:56:16;;;;;;;15.48;8.27;;;;;;;27.30;51.60;99692.03;4952570;29;20043;-79
2021/07/30 07:58:43;;;;;;;13.68;7.97;;;;;;;27.38;51.56;99691.88;4936657;29;20086;-79
2021/07/30 08:01:14;;;;;;;11.60;9.02;;;;;;;26.98;52.60;99693.47;4953202;29;20383;-78
2021/07/30 08:03:44;;;;;;;14.00;8.95;;;;;;;27.34;51.93;99685.28;4953148;29;20466;-79
2021/07/30 08:06:22;;;;;;;10.98;9.30;;;;;;;27.32;51.03;99692.66;4951641;29;20118;-80
2021/07/30 08:08:49;;;;;;;8.93;6.90;;;;;;;27.39;49.78;99701.56;4951301;29;20102;-81
2021/07/30 08:11:16;;;;;;;8.30;6.82;;;;;;;27.54;50.67;99702.25;4953447;29;20047;-80
2021/07/30 08:13:44;;;;;;;10.32;6.97;;;;;;;27.42;50.92;99701.13;4951499;28;20191;-78
2021/07/30 08:16:11;;;;;;;12.18;9.55;;;;;;;27.56;50.63;99691.31;4948833;29;20035;-78
2021/07/30 08:18:38;;;;;;;15.07;8.85;;;;;;;27.76;50.63;99686.91;4951536;29;20126;-77
2021/07/30 08:21:05;;;;;;;12.27;8.20;;;;;;;27.50;50.59;99681.44;4948980;29;20055;-78
2021/07/30 08:23:31;;;;;;;11.15;8.98;;;;;;;27.76;50.44;99683.41;4952541;29;20379;-77
2021/07/30 08:25:58;;;;;;;13.68;8.85;;;;;;;27.77;50.77;99677.84;4948648;29;20071;-78
2021/07/30 08:28:26;;;;;;;13.18;8.50;;;;;;;27.71;50.50;99678.66;4950994;28;20094;-76
2021/07/30 08:30:54;;;;;;;10.80;8.95;;;;;;;27.74;50.00;99682.75;4951690;28;20134;-77
2021/07/30 08:33:21;;;;;;;9.82;8.80;;;;;;;27.54;50.47;99694.22;4949994;28;20063;-77
2021/07/30 08:35:48;;;;;;;13.18;8.57;;;;;;;27.85;51.11;99692.88;4952486;28;20043;-79
2021/07/30 08:38:15;;;;;;;11.77;9.93;;;;;;;27.68;51.11;99693.22;4931573;29;20089;-78
2021/07/30 08:40:42;;;;;;;12.25;9.35;;;;;;;27.86;50.41;99698.06;4950299;29;20490;-78
2021/07/30 08:43:14;;;;;;;18.38;9.75;;;;;;;27.89;50.84;99691.47;4950925;29;20043;-78
2021/07/30 08:45:48;;;;;;;10.10;9.10;;;;;;;27.99;50.23;99691.06;4950138;29;20061;-79
2021/07/30 08:48:15;;;;;;;;;;;;;;;27.85;50.72;99700.91;4953432;28;20450;-80
2021/07/30 08:50:41;;;;;;;12.13;8.23;;;;;;;27.83;50.50;99701.13;4947738;28;19922;-78
2021/07/30 08:53:09;;;;;;;18.77;10.48;;;;;;;27.90;50.23;99709.16;4950114;28;20036;-77
2021/07/30 08:55:35;;;;;;;11.80;8.95;;;;;;;27.99;50.22;99702.59;4932007;28;20062;-78
2021/07/30 08:58:02;;;;;;;15.07;10.65;;;;;;;27.84;50.51;99699.28;4949521;28;20090;-79
2021/07/30 09:00:29;;;;;;;10.80;8.27;;;;;;;28.03;50.34;99708.41;4950843;28;20048;-76
2021/07/30 09:02:59;;;;;;;11.30;10.00;;;;;;;27.93;50.38;99706.94;4950565;28;20565;-77
2021/07/30 09:05:27;;;;;;;14.55;9.30;;;;;;;28.06;50.47;99708.78;4950845;28;20505;-78
2021/07/30 09:07:56;;;;;;;11.23;7.90;;;;;;;27.96;50.29;99708.34;4949510;28;20055;-77
2021/07/30 09:10:30;;;;;;;13.00;9.68;;;;;;;27.95;50.72;99709.41;4949961;28;20379;-78
2021/07/30 09:13:23;;;;;;;11.43;8.82;;;;;;;27.97;50.60;99712.72;4949508;28;20043;-77
2021/07/30 09:16:00;;;;;;;14.35;10.02;;;;;;;27.92;50.89;99704.47;4949696;28;20039;-78
2021/07/30 09:18:35;;;;;;;12.30;8.68;;;;;;;28.02;50.45;99712.06;4949013;28;20521;-77
2021/07/30 09:21:21;;;;;;;;;;;;;;;28.02;50.07;99720.13;4951037;28;20071;-77
2021/07/30 09:23:57;;;;;;;19.23;9.75;;;;;;;28.16;49.77;99719.13;4949991;28;19922;-79
2021/07/30 09:26:38;;;;;;;11.88;9.98;;;;;;;28.23;49.89;99719.13;4950143;28;20379;-79
2021/07/30 09:29:12;;;;;;;17.33;9.90;;;;;;;28.23;50.23;99719.13;4949756;28;20141;-80
2021/07/30 09:31:46;;;;;;;12.32;9.70;;;;;;;28.36;49.89;99713.84;4952641;28;20046;-80
2021/07/30 09:34:16;;;;;;;18.45;10.55;;;;;;;28.17;50.17;99720.78;4950548;28;20039;-81
2021/07/30 09:36:48;;;;;;;19.73;12.27;;;;;;;28.29;50.37;99721.03;4952519;28;20047;-78
2021/07/30 09:39:18;;;;;;;13.27;11.07;;;;;;;28.41;50.12;99717.53;4953749;28;20760;-78
2021/07/30 09:42:05;;;;;;;17.17;10.90;;;;;;;28.52;50.14;99729.50;4938582;28;20529;-76
2021/07/30 09:44:35;;;;;;;18.58;11.48;;;;;;;28.38;50.56;99725.16;4952448;28;20035;-77
2021/07/30 09:47:08;;;;;;;19.33;12.48;;;;;;;28.28;50.65;99722.03;4956816;28;20106;-77
2021/07/30 09:50:03;;;;;;;19.10;11.25;;;;;;;28.49;49.83;99713.81;4956680;28;20054;-81
2021/07/30 09:52:33;;;;;;;16.20;12.82;;;;;;;28.51;49.91;99710.97;4947970;28;20087;-82
2021/07/30 09:55:03;;;;;;;12.55;10.60;;;;;;;28.77;49.77;99726.22;4954050;28;20273;-81
2021/07/30 09:57:31;;;;;;;19.80;11.25;;;;;;;28.33;50.32;99719.59;4954601;28;20040;-78
2021/07/30 10:00:00;;;;;;;16.25;11.90;;;;;;;28.50;49.89;99715.50;4954704;28;20446;-79
2021/07/30 10:02:31;;;;;;;15.65;10.20;;;;;;;28.69;49.02;99713.81;4954624;28;20079;-81
2021/07/30 10:05:01;;;;;;;16.80;9.85;;;;;;;28.71;48.59;99706.41;4952283;28;20122;-79
2021/07/30 10:07:30;;;;;;;15.32;10.93;;;;;;;28.76;49.18;99708.44;4955160;28;20055;-82
2021/07/30 10:10:13;;;;;;;13.38;9.70;;;;;;;28.75;49.21;99712.16;4950326;28;20554;-83
2021/07/30 10:12:47;;;;;;;19.80;10.57;;;;;;;28.48;49.40;99701.44;4955021;28;20166;-81
2021/07/30 10:15:14;;;;;;;12.27;10.25;;;;;;;28.71;49.35;99690.31;4955751;28;20067;-80
2021/07/30 10:17:46;;;;;;;19.58;11.35;;;;;;;28.64;49.24;99695.66;4955556;28;20032;-80
2021/07/30 10:20:14;;;;;;;16.77;10.38;;;;;;;28.65;48.94;99701.84;4955037;28;20047;-80
2021/07/30 10:22:52;;;;;;;13.48;11.80;;;;;;;28.83;48.69;99687.84;4955422;28;20090;-81
2021/07/30 10:25:22;;;;;;;11.48;9.73;;;;;;;29.04;48.99;99684.09;4953949;28;20035;-81
2021/07/30 10:27:55;;;;;;;14.27;12.60;;;;;;;28.85;49.18;99689.25;4938300;28;20039;-79
2021/07/30 10:30:21;;;;;;;12.15;9.93;;;;;;;28.95;48.58;99697.72;4955001;28;20039;-81
2021/07/30 10:32:58;;;;;;;14.63;10.60;;;;;;;28.97;48.31;99695.66;4955536;28;20367;-79
2021/07/30 10:35:28;;;;;;;15.32;10.45;;;;;;;28.87;48.63;99703.31;4956106;28;20360;-83
2021/07/30 10:38:19;;;;;;;14.02;10.15;;;;;;;29.17;46.89;99697.47;4952807;28;20055;-81
2021/07/30 10:40:58;;;;;;;15.35;10.32;;;;;;;29.26;47.98;99695.41;4953550;28;20048;-83
2021/07/30 10:43:27;;;;;;;12.52;10.20;;;;;;;29.19;47.85;99688.19;4954502;28;20506;-82
2021/07/30 10:46:05;;;;;;;9.68;8.77;;;;;;;29.36;46.86;99683.19;4950655;28;20039;-82
2021/07/30 10:48:32;;;;;;;22.60;11.35;;;;;;;29.49;47.29;99696.53;4952506;28;20052;-79
2021/07/30 10:51:01;;;;;;;13.57;9.50;;;;;;;29.33;46.91;99688.13;4953190;28;20043;-86
2021/07/30 10:53:33;;;;;;;15.70;9.75;;;;;;;29.55;47.11;99683.31;4952103;28;20055;-86
2021/07/30 10:56:02;;;;;;;12.13;9.63;;;;;;;29.50;47.55;99691.97;4941248;29;20071;-87
2021/07/30 10:58:43;;;;;;;10.80;9.70;;;;;;;29.44;47.72;99685.59;4953841;28;20047;-86
2021/07/30 11:01:19;;;;;;;13.20;9.73;;;;;;;29.47;47.39;99679.00;4947895;29;20182;-84
2021/07/30 11:03:52;;;;;;;10.45;8.02;;;;;;;29.58;47.11;99681.03;4952773;28;20462;-84
2021/07/30 11:06:24;;;;;;;12.73;11.00;;;;;;;29.60;46.99;99678.97;4954441;29;20047;-83
2021/07/30 11:09:09;;;;;;;13.07;9.73;;;;;;;29.62;47.17;99681.44;4952431;28;20811;-83
2021/07/30 11:11:51;;;;;;;13.35;9.88;;;;;;;29.74;46.91;99679.72;4947918;29;20043;-82
2021/07/30 11:14:34;;;;;;;14.38;10.85;;;;;;;29.37;47.89;99678.63;4946459;28;20498;-82
2021/07/30 11:17:03;;;;;;;;;;;;;;;29.65;47.50;99678.31;4950852;28;20499;-84
2021/07/30 11:19:38;;;;;;;15.68;10.32;;;;;;;29.74;47.15;99682.41;4948706;29;19954;-82
2021/07/30 11:22:09;;;;;;;15.43;8.90;;;;;;;29.89;46.41;99682.94;4952160;28;20161;-80
2021/07/30 11:24:41;;;;;;;12.30;9.23;;;;;;;29.87;46.86;99678.81;4953501;28;20407;-81
2021/07/30 11:27:10;;;;;;;16.70;10.43;;;;;;;29.48;47.43;99681.47;4946135;29;20048;-84
2021/07/30 11:29:41;;;;;;;15.18;9.88;;;;;;;29.72;46.74;99684.47;4953739;28;20039;-80
2021/07/30 11:32:08;;;;;;;12.82;9.43;;;;;;;29.54;47.71;99690.56;4950844;29;20054;-85
2021/07/30 11:34:36;;;;;;;15.65;9.32;;;;;;;29.65;47.65;99700.63;4953450;28;20372;-83